createdAt,value
2022-09-16T00:01:01.138Z,58.12
2022-09-16T00:03:30.633Z,58.19
2022-09-16T00:05:58.543Z,58.38
2022-09-16T00:08:26.791Z,58.27
2022-09-16T00:10:55.187Z,58.17
2022-09-16T00:13:23.187Z,58.44
2022-09-16T00:15:51.941Z,58.19
2022-09-16T00:18:21.397Z,58.25
2022-09-16T00:20:54.797Z,58.21
2022-09-16T00:23:23.069Z,58.27
2022-09-16T00:25:52.889Z,58.09
2022-09-16T00:28:21.680Z,57.97
2022-09-16T00:30:50.627Z,58.62
2022-09-16T00:33:19.884Z,58.48
2022-09-16T00:35:52.982Z,58.24
2022-09-16T00:38:32.035Z,58.58
2022-09-16T00:40:59.999Z,58.70
2022-09-16T00:43:28.111Z,58.26
2022-09-16T00:46:00.048Z,58.21
2022-09-16T00:48:30.444Z,58.47
2022-09-16T00:51:02.970Z,58.92
2022-09-16T00:53:35.459Z,58.45
2022-09-16T00:56:10.175Z,58.30
2022-09-16T00:58:43.692Z,58.35
2022-09-16T01:01:11.652Z,58.51
2022-09-16T01:03:46.440Z,58.69
2022-09-16T01:06:17.681Z,58.77
2022-09-16T01:08:46.464Z,58.42
2022-09-16T01:11:14.342Z,58.83
2022-09-16T01:13:44.443Z,58.33
2022-09-16T01:16:20.146Z,58.42
2022-09-16T01:18:55.802Z,58.72
2022-09-16T01:21:38.821Z,58.65
2022-09-16T01:24:35.272Z,60.06
2022-09-16T01:27:25.939Z,59.97
2022-09-16T01:30:35.871Z,60.47
2022-09-16T01:33:08.684Z,61.69
2022-09-16T01:35:54.133Z,59.46
2022-09-16T01:38:39.134Z,60.31
2022-09-16T01:41:15.521Z,59.88
2022-09-16T01:43:51.754Z,59.63
2022-09-16T01:46:23.924Z,60.46
2022-09-16T01:48:58.830Z,60.20
2022-09-16T01:51:31.781Z,60.58
2022-09-16T01:54:06.975Z,60.13
2022-09-16T01:56:42.697Z,60.34
2022-09-16T01:59:19.993Z,60.40
2022-09-16T02:01:55.563Z,60.48
2022-09-16T02:04:30.886Z,60.07
2022-09-16T02:07:06.751Z,60.39
2022-09-16T02:09:40.407Z,59.71
2022-09-16T02:12:15.067Z,59.57
2022-09-16T02:14:47.027Z,59.96
2022-09-16T02:17:18.198Z,59.47
2022-09-16T02:19:57.167Z,59.84
2022-09-16T02:22:30.374Z,60.60
2022-09-16T02:25:04.108Z,59.69
2022-09-16T02:27:33.424Z,59.93
2022-09-16T02:30:07.928Z,59.74
2022-09-16T02:32:43.659Z,60.00
2022-09-16T02:35:20.262Z,60.14
2022-09-16T02:37:53.030Z,60.48
2022-09-16T02:40:26.273Z,59.62
2022-09-16T02:42:54.366Z,60.10
2022-09-16T02:45:27.297Z,59.60
2022-09-16T02:48:03.188Z,60.17
2022-09-16T02:50:41.044Z,61.19
2022-09-16T02:53:18.002Z,61.04
2022-09-16T02:55:54.205Z,61.11
2022-09-16T02:58:25.164Z,61.44
2022-09-16T03:00:58.430Z,61.19
2022-09-16T03:03:26.976Z,61.46
2022-09-16T03:06:17.304Z,60.87
2022-09-16T03:08:46.497Z,63.26
2022-09-16T03:11:29.894Z,61.18
2022-09-16T03:14:13.153Z,62.00
2022-09-16T03:16:54.073Z,61.77
2022-09-16T03:19:27.627Z,61.93
2022-09-16T03:22:04.315Z,61.76
2022-09-16T03:24:43.914Z,62.30
2022-09-16T03:27:20.656Z,62.07
2022-09-16T03:29:56.976Z,61.38
2022-09-16T03:32:29.472Z,61.44
2022-09-16T03:35:02.238Z,60.64
2022-09-16T03:37:37.172Z,61.11
2022-09-16T03:40:10.152Z,61.32
2022-09-16T03:42:40.692Z,60.74
2022-09-16T03:45:12.482Z,60.90
2022-09-16T03:47:41.019Z,60.67
2022-09-16T03:50:09.760Z,60.29
2022-09-16T03:52:39.392Z,60.47
2022-09-16T03:55:08.284Z,60.58
2022-09-16T03:57:36.341Z,60.65
2022-09-16T04:00:05.025Z,60.96
2022-09-16T04:02:40.061Z,60.88
2022-09-16T04:05:09.870Z,60.90
2022-09-16T04:07:39.131Z,60.60
2022-09-16T04:10:08.405Z,60.81
2022-09-16T04:12:36.765Z,60.74
2022-09-16T04:15:05.624Z,60.94
2022-09-16T04:17:34.114Z,60.40
2022-09-16T04:20:02.826Z,60.68
2022-09-16T04:22:31.717Z,60.87
2022-09-16T04:25:01.049Z,60.80
2022-09-16T04:27:29.224Z,61.20
2022-09-16T04:29:57.422Z,61.15
2022-09-16T04:32:27.622Z,61.16
2022-09-16T04:34:56.325Z,61.14
2022-09-16T04:37:24.243Z,61.68
2022-09-16T04:39:53.368Z,61.19
2022-09-16T04:42:23.125Z,61.52
2022-09-16T04:44:50.965Z,61.62
2022-09-16T04:47:18.874Z,61.97
2022-09-16T04:49:47.225Z,61.61
2022-09-16T04:52:15.397Z,61.62
2022-09-16T04:54:44.878Z,62.13
2022-09-16T04:57:13.061Z,61.93
2022-09-16T04:59:42.284Z,61.76
2022-09-16T05:02:10.259Z,61.91
2022-09-16T05:04:38.437Z,61.71
2022-09-16T05:07:09.316Z,62.59
2022-09-16T05:09:37.589Z,62.54
2022-09-16T05:12:06.911Z,62.59
2022-09-16T05:14:35.081Z,62.12
2022-09-16T05:17:04.499Z,62.19
2022-09-16T05:19:32.806Z,61.92
2022-09-16T05:22:00.827Z,61.76
2022-09-16T05:24:28.800Z,61.83
2022-09-16T05:26:57.296Z,61.61
2022-09-16T05:29:25.419Z,62.02
2022-09-16T05:31:53.355Z,61.84
2022-09-16T05:34:28.492Z,62.11
2022-09-16T05:36:57.202Z,62.79
2022-09-16T05:39:33.771Z,62.10
2022-09-16T05:42:04.787Z,62.14
2022-09-16T05:44:33.183Z,61.62
2022-09-16T05:47:01.100Z,62.28
2022-09-16T05:49:30.280Z,61.71
2022-09-16T05:51:58.409Z,61.81
2022-09-16T05:54:26.222Z,61.69
2022-09-16T05:56:54.154Z,61.64
2022-09-16T05:59:23.812Z,62.04
2022-09-16T06:01:51.743Z,61.92
2022-09-16T06:04:19.988Z,61.70
2022-09-16T06:06:49.706Z,61.44
2022-09-16T06:09:21.913Z,61.78
2022-09-16T06:12:00.992Z,61.49
2022-09-16T06:14:30.317Z,60.97
2022-09-16T06:17:00.771Z,61.13
2022-09-16T06:19:28.710Z,60.83
2022-09-16T06:21:58.500Z,60.79
2022-09-16T06:24:26.967Z,60.63
2022-09-16T06:26:54.883Z,60.48
2022-09-16T06:29:22.967Z,60.36
2022-09-16T06:31:51.289Z,60.29
2022-09-16T06:34:20.987Z,59.96
2022-09-16T06:36:48.993Z,59.95
2022-09-16T06:39:24.003Z,59.62
2022-09-16T06:41:51.925Z,59.66
2022-09-16T06:44:26.777Z,59.41
2022-09-16T06:47:01.457Z,59.42
2022-09-16T06:49:47.107Z,59.27
2022-09-16T06:52:19.204Z,59.19
2022-09-16T06:54:48.527Z,59.19
2022-09-16T06:57:18.193Z,58.98
2022-09-16T06:59:46.199Z,58.97
2022-09-16T07:02:14.174Z,58.84
2022-09-16T07:04:44.803Z,58.97
2022-09-16T07:07:12.924Z,59.16
2022-09-16T07:09:42.802Z,58.73
2022-09-16T07:12:16.245Z,58.71
2022-09-16T07:14:46.735Z,58.76
2022-09-16T07:17:14.971Z,58.74
2022-09-16T07:19:42.934Z,58.42
2022-09-16T07:22:11.458Z,58.44
2022-09-16T07:24:39.713Z,58.20
2022-09-16T07:27:26.125Z,57.67
2022-09-16T07:30:03.608Z,57.51
2022-09-16T07:32:34.909Z,57.87
2022-09-16T07:35:04.625Z,57.66
2022-09-16T07:37:32.762Z,57.52
2022-09-16T07:40:00.702Z,57.30
2022-09-16T07:42:31.457Z,56.90
2022-09-16T07:44:59.370Z,56.34
2022-09-16T07:47:30.404Z,56.19
2022-09-16T07:49:59.708Z,55.79
2022-09-16T07:52:29.737Z,55.97
2022-09-16T07:54:57.704Z,56.19
2022-09-16T07:57:26.148Z,55.83
2022-09-16T07:59:55.701Z,55.22
2022-09-16T08:02:23.644Z,54.11
2022-09-16T08:04:51.906Z,54.93
2022-09-16T08:07:19.683Z,55.04
2022-09-16T08:09:50.855Z,54.90
2022-09-16T08:12:19.818Z,55.02
2022-09-16T08:14:47.858Z,54.46
2022-09-16T08:17:17.238Z,53.58
2022-09-16T08:19:45.411Z,51.99
2022-09-16T08:22:13.257Z,53.88
2022-09-16T08:24:41.188Z,54.18
2022-09-16T08:27:09.367Z,53.81
2022-09-16T08:29:37.597Z,53.67
2022-09-16T08:32:05.775Z,53.46
2022-09-16T08:34:35.518Z,53.76
2022-09-16T08:37:03.388Z,53.31
2022-09-16T08:39:31.235Z,53.36
2022-09-16T08:42:20.905Z,53.68
2022-09-16T08:45:00.393Z,51.42
2022-09-16T08:47:43.078Z,51.95
2022-09-16T08:50:18.244Z,51.72
2022-09-16T08:52:48.048Z,52.38
2022-09-16T08:55:19.995Z,52.02
2022-09-16T08:57:57.405Z,52.33
2022-09-16T09:00:25.262Z,51.63
2022-09-16T09:02:57.153Z,52.29
2022-09-16T09:05:34.686Z,53.02
2022-09-16T09:08:13.924Z,54.23
2022-09-16T09:10:47.583Z,54.09
2022-09-16T09:13:38.364Z,55.67
2022-09-16T09:16:15.794Z,61.24
2022-09-16T09:18:53.839Z,59.79
2022-09-16T09:21:31.571Z,59.81
2022-09-16T09:24:24.381Z,60.38
2022-09-16T09:26:57.919Z,62.38
2022-09-16T09:29:39.849Z,61.15
2022-09-16T09:32:21.205Z,61.52
2022-09-16T09:35:02.324Z,62.39
2022-09-16T09:37:42.440Z,62.37
2022-09-16T09:40:14.789Z,61.87
2022-09-16T09:42:51.014Z,60.84
2022-09-16T09:45:24.615Z,61.41
2022-09-16T09:47:58.596Z,61.39
2022-09-16T09:50:30.912Z,60.89
2022-09-16T09:53:13.004Z,60.78
2022-09-16T09:55:42.896Z,60.70
2022-09-16T09:58:20.486Z,60.29
2022-09-16T10:00:49.180Z,60.28
2022-09-16T10:03:20.655Z,59.21
2022-09-16T10:05:49.380Z,58.68
2022-09-16T10:08:28.057Z,58.53
2022-09-16T10:10:59.628Z,59.00
2022-09-16T10:13:29.947Z,57.64
2022-09-16T10:16:10.640Z,55.77
2022-09-16T10:18:39.117Z,55.32
2022-09-16T10:21:10.583Z,55.58
2022-09-16T10:23:40.271Z,54.91
2022-09-16T10:26:19.600Z,53.71
2022-09-16T10:29:00.371Z,52.43
2022-09-16T10:31:36.015Z,54.05
2022-09-16T10:34:06.553Z,54.88
2022-09-16T10:36:36.754Z,54.80
2022-09-16T10:39:06.423Z,54.85
2022-09-16T10:41:41.766Z,55.27
2022-09-16T10:44:17.705Z,55.18
2022-09-16T10:46:55.008Z,55.53
2022-09-16T10:49:29.326Z,55.53
2022-09-16T10:52:09.120Z,55.30
2022-09-16T10:54:38.309Z,56.61
2022-09-16T10:57:23.128Z,55.94
2022-09-16T11:00:08.778Z,56.02
2022-09-16T11:02:58.015Z,54.93
2022-09-16T11:05:33.103Z,54.29
2022-09-16T11:08:13.116Z,54.03
2022-09-16T11:10:49.659Z,53.75
2022-09-16T11:13:39.065Z,53.94
2022-09-16T11:16:18.733Z,54.80
2022-09-16T11:19:02.743Z,52.91
2022-09-16T11:21:41.967Z,54.55
2022-09-16T11:24:23.042Z,54.70
2022-09-16T11:27:00.504Z,54.02
2022-09-16T11:29:48.402Z,54.45
2022-09-16T11:32:26.741Z,54.08
2022-09-16T11:35:23.826Z,54.34
2022-09-16T11:37:59.876Z,53.67
2022-09-16T11:40:35.274Z,53.56
2022-09-16T11:43:26.076Z,53.49
2022-09-16T11:46:03.240Z,51.93
2022-09-16T11:48:42.376Z,53.50
2022-09-16T11:51:27.029Z,54.97
2022-09-16T11:54:15.470Z,54.68
2022-09-16T11:56:47.721Z,55.16
2022-09-16T11:59:30.175Z,54.79
2022-09-16T12:02:03.301Z,54.97
2022-09-16T12:04:38.302Z,55.28
2022-09-16T12:07:14.022Z,55.06
2022-09-16T12:09:49.282Z,52.96
2022-09-16T12:12:21.107Z,53.50
2022-09-16T12:14:56.007Z,52.88
2022-09-16T12:17:27.942Z,52.25
2022-09-16T12:20:01.405Z,50.97
2022-09-16T12:22:33.053Z,51.94
2022-09-16T12:25:08.046Z,51.64
2022-09-16T12:27:44.264Z,50.69
2022-09-16T12:30:19.273Z,50.23
2022-09-16T12:32:56.386Z,49.14
2022-09-16T12:35:29.372Z,49.36
2022-09-16T12:37:57.867Z,50.96
2022-09-16T12:40:28.465Z,50.78
2022-09-16T12:43:17.142Z,50.09
2022-09-16T12:46:12.650Z,45.10
2022-09-16T12:48:54.223Z,47.65
2022-09-16T12:51:50.507Z,48.21
2022-09-16T12:55:11.346Z,45.19
2022-09-16T12:57:52.572Z,43.28
2022-09-16T13:00:22.189Z,45.21
2022-09-16T13:02:55.728Z,48.33
2022-09-16T13:05:30.972Z,46.41
2022-09-16T13:08:05.830Z,47.50
2022-09-16T13:13:34.142Z,45.82
2022-09-16T13:16:10.422Z,45.06
2022-09-16T13:18:45.041Z,47.71
2022-09-16T13:21:24.235Z,46.88
2022-09-16T13:24:00.567Z,44.92
2022-09-16T13:26:39.853Z,47.54
2022-09-16T13:29:39.471Z,46.01
2022-09-16T13:32:26.926Z,46.23
2022-09-16T13:35:04.639Z,46.85
2022-09-16T13:37:32.585Z,47.01
2022-09-16T13:40:17.084Z,47.90
2022-09-16T13:42:45.140Z,45.48
2022-09-16T13:45:48.143Z,47.52
2022-09-16T13:48:19.463Z,43.67
2022-09-16T13:50:52.862Z,47.16
2022-09-16T13:53:36.539Z,45.67
2022-09-16T13:56:17.805Z,45.22
2022-09-16T13:58:55.063Z,45.90
2022-09-16T14:01:37.000Z,44.98
2022-09-16T14:04:28.700Z,45.89
2022-09-16T14:07:15.199Z,45.54
2022-09-16T14:09:55.114Z,44.22
2022-09-16T14:12:36.234Z,44.88
2022-09-16T14:15:06.379Z,45.27
2022-09-16T14:17:40.784Z,46.87
2022-09-16T14:20:17.313Z,45.07
2022-09-16T14:22:46.588Z,44.18
2022-09-16T14:25:35.600Z,46.13
2022-09-16T14:28:17.086Z,41.58
2022-09-16T14:30:51.198Z,43.78
2022-09-16T14:33:24.250Z,43.68
2022-09-16T14:35:54.585Z,44.16
2022-09-16T14:41:27.676Z,42.63
2022-09-16T14:43:57.831Z,40.88
2022-09-16T14:46:27.065Z,42.48
2022-09-16T14:48:55.192Z,42.86
2022-09-16T14:51:27.286Z,40.58
2022-09-16T14:54:12.362Z,42.34
2022-09-16T14:56:41.107Z,39.25
2022-09-16T14:59:12.599Z,42.92
2022-09-16T15:01:41.890Z,42.81
2022-09-16T15:04:19.070Z,43.57
2022-09-16T15:06:52.705Z,39.34
2022-09-16T15:09:29.369Z,41.70
2022-09-16T15:12:00.763Z,38.57
2022-09-16T15:14:29.198Z,41.72
2022-09-16T15:17:00.444Z,42.58
2022-09-16T15:19:36.645Z,40.78
2022-09-16T15:22:07.207Z,41.48
2022-09-16T15:24:41.574Z,42.27
2022-09-16T15:27:10.455Z,41.03
2022-09-16T15:29:50.521Z,41.73
2022-09-16T15:32:20.962Z,39.31
2022-09-16T15:34:49.561Z,41.20
2022-09-16T15:37:34.462Z,42.10
2022-09-16T15:40:19.685Z,40.57
2022-09-16T15:42:48.289Z,40.79
2022-09-16T15:45:19.900Z,43.46
2022-09-16T15:47:57.813Z,44.05
2022-09-16T15:50:28.958Z,43.40
2022-09-16T15:53:01.741Z,44.51
2022-09-16T15:55:36.330Z,43.83
2022-09-16T15:58:11.828Z,43.53
2022-09-16T16:01:03.623Z,44.45
2022-09-16T16:03:38.728Z,43.86
2022-09-16T16:06:07.114Z,44.34
2022-09-16T16:08:42.231Z,44.88
2022-09-16T16:11:13.972Z,44.73
2022-09-16T16:13:42.543Z,45.29
2022-09-16T16:16:12.838Z,45.20
2022-09-16T16:18:41.968Z,45.48
2022-09-16T16:21:16.068Z,44.80
2022-09-16T16:23:44.769Z,44.13
2022-09-16T16:26:14.511Z,45.09
2022-09-16T16:28:42.728Z,44.87
2022-09-16T16:31:15.541Z,44.67
2022-09-16T16:33:45.197Z,45.68
2022-09-16T16:36:14.881Z,46.41
2022-09-16T16:38:43.591Z,46.18
2022-09-16T16:41:15.656Z,45.95
2022-09-16T16:43:47.080Z,46.15
2022-09-16T16:46:20.385Z,46.19
2022-09-16T16:48:48.346Z,46.41
2022-09-16T16:51:16.406Z,46.23
2022-09-16T16:53:48.397Z,46.34
2022-09-16T16:56:16.582Z,46.70
2022-09-16T16:58:45.755Z,46.35
2022-09-16T17:01:16.245Z,46.62
2022-09-16T17:03:46.356Z,47.11
2022-09-16T17:06:14.732Z,47.38
2022-09-16T17:08:42.690Z,47.25
2022-09-16T17:11:12.850Z,47.36
2022-09-16T17:13:42.653Z,47.29
2022-09-16T17:16:14.190Z,47.50
2022-09-16T17:18:42.947Z,47.85
2022-09-16T17:21:14.644Z,47.87
2022-09-16T17:23:42.831Z,47.94
2022-09-16T17:26:11.240Z,47.51
2022-09-16T17:28:44.465Z,46.70
2022-09-16T17:31:16.481Z,46.45
2022-09-16T17:33:45.082Z,45.65
2022-09-16T17:36:14.595Z,45.97
2022-09-16T17:38:42.806Z,45.86
2022-09-16T17:41:13.573Z,45.66
2022-09-16T17:43:42.683Z,45.49
2022-09-16T17:46:16.049Z,45.17
2022-09-16T17:48:44.634Z,45.15
2022-09-16T17:51:13.563Z,45.61
2022-09-16T17:53:41.816Z,45.58
2022-09-16T17:56:11.864Z,45.63
2022-09-16T17:58:42.857Z,45.50
2022-09-16T18:01:13.090Z,45.42
2022-09-16T18:03:44.732Z,45.74
2022-09-16T18:06:14.611Z,45.58
2022-09-16T18:08:43.537Z,45.70
2022-09-16T18:11:12.848Z,45.67
2022-09-16T18:13:41.777Z,46.12
2022-09-16T18:16:13.603Z,46.15
2022-09-16T18:18:44.001Z,46.30
2022-09-16T18:21:15.258Z,46.26
2022-09-16T18:23:43.506Z,46.61
2022-09-16T18:26:14.611Z,46.77
2022-09-16T18:29:07.877Z,46.66
2022-09-16T18:31:34.812Z,46.72
2022-09-16T18:34:04.596Z,46.68
2022-09-16T18:36:46.190Z,46.81
2022-09-16T18:39:18.262Z,46.99
2022-09-16T18:41:46.633Z,47.04
2022-09-16T18:44:17.275Z,47.17
2022-09-16T18:46:57.855Z,47.25
2022-09-16T18:49:30.105Z,47.42
2022-09-16T18:51:58.015Z,47.38
2022-09-16T18:54:29.004Z,47.51
2022-09-16T18:56:59.046Z,47.57
2022-09-16T18:59:29.371Z,47.44
2022-09-16T19:01:59.425Z,47.62
2022-09-16T19:04:30.866Z,47.65
2022-09-16T19:07:06.167Z,47.83
2022-09-16T19:09:36.039Z,47.77
2022-09-16T19:12:04.843Z,47.87
2022-09-16T19:14:32.770Z,48.00
2022-09-16T19:17:01.039Z,48.05
2022-09-16T19:19:30.448Z,48.24
2022-09-16T19:21:58.740Z,48.29
2022-09-16T19:24:27.738Z,48.26
2022-09-16T19:26:56.538Z,48.42
2022-09-16T19:29:24.812Z,48.66
2022-09-16T19:31:53.674Z,48.63
2022-09-16T19:34:22.625Z,48.82
2022-09-16T19:36:51.903Z,48.99
2022-09-16T19:39:21.229Z,48.93
2022-09-16T19:41:49.606Z,49.17
2022-09-16T19:44:18.595Z,49.07
2022-09-16T19:46:49.410Z,49.19
2022-09-16T19:49:19.889Z,49.24
2022-09-16T19:51:49.082Z,49.45
2022-09-16T19:54:19.005Z,49.65
2022-09-16T19:56:50.657Z,49.76
2022-09-16T19:59:20.111Z,49.64
2022-09-16T20:01:49.033Z,49.69
2022-09-16T20:04:19.800Z,49.62
2022-09-16T20:06:48.807Z,49.51
2022-09-16T20:09:19.748Z,49.57
2022-09-16T20:11:48.916Z,49.66
2022-09-16T20:14:19.682Z,49.68
2022-09-16T20:16:48.872Z,49.72
2022-09-16T20:19:19.219Z,50.24
2022-09-16T20:21:47.417Z,49.93
2022-09-16T20:24:19.100Z,49.97
2022-09-16T20:26:48.056Z,49.68
2022-09-16T20:29:17.261Z,49.76
2022-09-16T20:31:46.794Z,49.48
2022-09-16T20:34:16.239Z,49.34
2022-09-16T20:36:45.842Z,49.81
2022-09-16T20:39:14.582Z,49.43
2022-09-16T20:41:49.977Z,49.81
2022-09-16T20:44:18.290Z,49.67
2022-09-16T20:46:48.137Z,49.48
2022-09-16T20:49:20.118Z,49.54
2022-09-16T20:51:48.266Z,49.55
2022-09-16T20:54:16.672Z,49.40
2022-09-16T20:56:47.826Z,49.95
2022-09-16T20:59:17.496Z,49.79
2022-09-16T21:01:45.674Z,49.88
2022-09-16T21:04:16.798Z,50.05
2022-09-16T21:06:49.713Z,49.83
2022-09-16T21:09:20.140Z,49.84
2022-09-16T21:11:49.783Z,50.25
2022-09-16T21:14:21.445Z,50.08
2022-09-16T21:16:50.146Z,50.28
2022-09-16T21:19:18.049Z,50.44
2022-09-16T21:21:47.600Z,50.17
2022-09-16T21:24:16.480Z,50.34
2022-09-16T21:26:45.985Z,50.56
2022-09-16T21:29:18.358Z,50.65
2022-09-16T21:31:46.669Z,51.01
2022-09-16T21:34:16.844Z,50.66
2022-09-16T21:36:45.262Z,50.70
2022-09-16T21:39:14.529Z,50.91
2022-09-16T21:41:43.033Z,50.92
2022-09-16T21:44:11.883Z,50.77
2022-09-16T21:46:45.400Z,51.12
2022-09-16T21:49:19.194Z,51.37
2022-09-16T21:51:47.499Z,51.25
2022-09-16T21:54:19.936Z,51.20
2022-09-16T21:56:50.144Z,51.23
2022-09-16T21:59:19.774Z,51.47
2022-09-16T22:01:51.102Z,51.44
2022-09-16T22:04:21.604Z,51.21
2022-09-16T22:06:50.456Z,51.47
2022-09-16T22:09:18.799Z,51.77
2022-09-16T22:11:47.084Z,51.49
2022-09-16T22:14:16.126Z,51.40
2022-09-16T22:16:44.739Z,51.66
2022-09-16T22:19:16.182Z,51.44
2022-09-16T22:21:46.354Z,51.71
2022-09-16T22:24:16.184Z,51.48
2022-09-16T22:26:44.461Z,51.83
2022-09-16T22:29:13.596Z,51.37
2022-09-16T22:31:42.906Z,51.33
2022-09-16T22:34:21.269Z,51.23
2022-09-16T22:36:49.554Z,51.40
2022-09-16T22:39:19.778Z,51.49
2022-09-16T22:41:48.469Z,51.42
2022-09-16T22:44:16.593Z,51.74
2022-09-16T22:46:47.027Z,51.81
2022-09-16T22:49:15.739Z,51.63
2022-09-16T22:51:46.101Z,51.64
2022-09-16T22:54:15.810Z,51.74
2022-09-16T22:56:45.225Z,51.49
2022-09-16T22:59:18.443Z,51.97
2022-09-16T23:01:47.448Z,52.03
2022-09-16T23:04:15.945Z,51.78
2022-09-16T23:06:45.212Z,51.78
2022-09-16T23:09:14.500Z,51.75
2022-09-16T23:11:42.618Z,51.92
2022-09-16T23:14:14.371Z,51.91
2022-09-16T23:16:43.035Z,52.09
2022-09-16T23:19:12.622Z,52.18
2022-09-16T23:21:41.441Z,52.36
2022-09-16T23:24:16.904Z,52.31
2022-09-16T23:26:53.968Z,52.89
2022-09-16T23:29:24.496Z,53.03
2022-09-16T23:31:52.577Z,52.74
2022-09-16T23:34:21.857Z,52.59
2022-09-16T23:36:50.507Z,52.63
2022-09-16T23:39:20.449Z,52.62
2022-09-16T23:41:50.454Z,52.99
2022-09-16T23:44:19.274Z,52.81
2022-09-16T23:46:47.144Z,52.90
2022-09-16T23:49:16.927Z,53.42
2022-09-16T23:51:45.151Z,53.00
2022-09-16T23:54:17.568Z,52.89
2022-09-16T23:56:47.061Z,53.22
2022-09-16T23:59:14.932Z,53.08
